createdAt,value
2017-10-29T00:00:11.723Z,85.30
2017-10-29T00:02:39.995Z,85.00
2017-10-29T00:05:08.294Z,85.60
2017-10-29T00:07:36.608Z,85.30
2017-10-29T00:10:04.868Z,84.60
2017-10-29T00:12:33.131Z,84.80
2017-10-29T00:15:01.401Z,85.00
2017-10-29T00:17:29.624Z,85.40
2017-10-29T00:19:57.856Z,85.90
2017-10-29T00:22:26.895Z,86.00
2017-10-29T00:24:55.108Z,85.50
2017-10-29T00:27:24.112Z,85.80
2017-10-29T00:29:52.393Z,85.70
2017-10-29T00:32:20.621Z,85.40
2017-10-29T00:34:49.601Z,85.60
2017-10-29T00:37:17.993Z,85.60
2017-10-29T00:39:46.221Z,83.60
2017-10-29T00:42:14.449Z,83.60
2017-10-29T00:44:42.713Z,83.00
2017-10-29T00:47:10.977Z,83.10
2017-10-29T00:49:39.205Z,83.00
2017-10-29T00:52:07.661Z,82.60
2017-10-29T00:54:35.889Z,81.60
2017-10-29T00:57:04.125Z,81.60
2017-10-29T00:59:32.385Z,81.10
2017-10-29T01:02:01.380Z,82.00
2017-10-29T01:04:29.658Z,81.60
2017-10-29T01:06:58.696Z,80.90
2017-10-29T01:09:27.015Z,80.80
2017-10-29T01:11:55.271Z,80.30
2017-10-29T01:14:24.336Z,81.40
2017-10-29T01:16:52.619Z,81.30
2017-10-29T01:19:20.889Z,81.60
2017-10-29T01:21:49.163Z,81.60
2017-10-29T01:24:17.431Z,81.80
2017-10-29T01:26:45.723Z,82.60
2017-10-29T01:29:14.747Z,82.70
2017-10-29T01:31:43.035Z,83.40
2017-10-29T01:34:11.291Z,81.80
2017-10-29T01:36:39.560Z,82.40
2017-10-29T01:39:07.851Z,82.30
2017-10-29T01:41:36.881Z,83.20
2017-10-29T01:44:05.160Z,82.40
2017-10-29T01:46:33.451Z,82.20
2017-10-29T01:49:02.611Z,82.00
2017-10-29T01:51:31.447Z,81.90
2017-10-29T01:53:59.704Z,82.40
2017-10-29T01:56:28.003Z,82.00
2017-10-29T01:58:56.268Z,83.10
2017-10-29T02:01:24.552Z,83.80
2017-10-29T02:03:53.629Z,84.50
2017-10-29T02:06:21.953Z,84.50
2017-10-29T02:08:50.211Z,85.10
2017-10-29T02:11:18.465Z,85.20
2017-10-29T02:13:46.746Z,85.20
2017-10-29T02:16:15.000Z,85.80
2017-10-29T02:18:43.291Z,85.50
2017-10-29T02:21:11.557Z,84.90
2017-10-29T02:23:40.830Z,86.10
2017-10-29T02:26:09.087Z,85.60
2017-10-29T02:28:37.338Z,84.70
2017-10-29T02:31:05.615Z,83.80
2017-10-29T02:33:33.872Z,83.30
2017-10-29T02:36:02.143Z,82.70
2017-10-29T02:38:31.175Z,83.60
2017-10-29T02:40:59.488Z,82.90
2017-10-29T02:43:28.568Z,82.60
2017-10-29T02:45:57.608Z,82.70
2017-10-29T02:48:25.896Z,82.60
2017-10-29T02:50:54.163Z,82.70
2017-10-29T02:53:22.440Z,82.60
2017-10-29T02:55:51.476Z,82.10
2017-10-29T02:58:19.965Z,82.00
2017-10-29T03:00:48.212Z,82.10
2017-10-29T03:03:16.471Z,82.10
2017-10-29T03:05:44.743Z,83.10
2017-10-29T03:08:13.007Z,82.10
2017-10-29T03:10:41.275Z,81.90
2017-10-29T03:13:10.295Z,82.00
2017-10-29T03:15:38.595Z,81.20
2017-10-29T03:18:06.860Z,80.50
2017-10-29T03:20:35.118Z,80.50
2017-10-29T03:23:03.415Z,80.30
2017-10-29T03:25:31.688Z,80.50
2017-10-29T03:27:59.951Z,80.90
2017-10-29T03:30:28.271Z,81.00
2017-10-29T03:32:56.613Z,80.90
2017-10-29T03:35:24.868Z,80.80
2017-10-29T03:37:53.194Z,80.40
2017-10-29T03:40:21.512Z,80.70
2017-10-29T03:42:49.776Z,81.20
2017-10-29T03:45:18.055Z,80.70
2017-10-29T03:47:46.319Z,80.70
2017-10-29T03:50:15.665Z,80.30
2017-10-29T03:52:43.928Z,80.30
2017-10-29T03:55:12.208Z,80.60
2017-10-29T03:57:40.472Z,80.90
2017-10-29T04:00:08.732Z,81.20
2017-10-29T04:02:37.016Z,81.40
2017-10-29T04:05:06.034Z,81.00
2017-10-29T04:07:34.315Z,80.90
2017-10-29T04:10:02.575Z,81.20
2017-10-29T04:12:30.868Z,81.00
2017-10-29T04:15:00.020Z,81.00
2017-10-29T04:17:28.326Z,81.20
2017-10-29T04:19:57.370Z,79.70
2017-10-29T04:22:25.645Z,80.60
2017-10-29T04:24:53.924Z,79.20
2017-10-29T04:27:22.972Z,79.10
2017-10-29T04:29:51.282Z,79.10
2017-10-29T04:32:19.555Z,78.90
2017-10-29T04:34:47.819Z,79.50
2017-10-29T04:37:16.113Z,79.10
2017-10-29T04:39:44.373Z,79.50
2017-10-29T04:42:12.656Z,79.70
2017-10-29T04:44:40.922Z,80.40
2017-10-29T04:47:10.204Z,80.20
2017-10-29T04:49:39.242Z,81.00
2017-10-29T04:52:07.503Z,80.90
2017-10-29T04:54:35.781Z,80.60
2017-10-29T04:57:04.035Z,81.40
2017-10-29T04:59:32.314Z,80.50
2017-10-29T05:02:01.352Z,81.50
2017-10-29T05:04:29.657Z,81.40
2017-10-29T05:06:57.915Z,81.50
2017-10-29T05:09:26.212Z,81.40
2017-10-29T05:11:55.254Z,83.10
2017-10-29T05:14:23.531Z,83.10
2017-10-29T05:16:51.816Z,85.80
2017-10-29T05:19:20.075Z,86.00
2017-10-29T05:21:48.358Z,86.60
2017-10-29T05:24:16.628Z,87.90
2017-10-29T05:26:44.896Z,87.90
2017-10-29T05:29:13.199Z,87.70
2017-10-29T05:31:41.477Z,87.10
2017-10-29T05:34:10.515Z,87.60
2017-10-29T05:36:38.780Z,87.60
2017-10-29T05:39:07.251Z,88.60
2017-10-29T05:41:35.511Z,89.90
2017-10-29T05:44:03.770Z,89.10
2017-10-29T05:46:32.043Z,90.50
2017-10-29T05:49:00.303Z,90.20
2017-10-29T05:51:28.583Z,90.20
2017-10-29T05:53:57.609Z,90.20
2017-10-29T05:56:26.319Z,90.50
2017-10-29T05:58:55.359Z,90.00
2017-10-29T06:01:23.645Z,89.90
2017-10-29T06:03:51.924Z,90.50
2017-10-29T06:06:21.202Z,90.50
2017-10-29T06:08:49.479Z,90.50
2017-10-29T06:11:18.508Z,90.20
2017-10-29T06:13:46.818Z,90.20
2017-10-29T06:16:15.843Z,90.90
2017-10-29T06:18:44.099Z,90.50
2017-10-29T06:21:12.386Z,90.50
2017-10-29T06:23:40.651Z,90.50
2017-10-29T06:26:08.924Z,90.70
2017-10-29T06:28:37.183Z,90.50
2017-10-29T06:31:05.483Z,91.00
2017-10-29T06:33:33.747Z,90.50
2017-10-29T06:36:02.004Z,90.50
2017-10-29T06:38:30.279Z,90.80
2017-10-29T06:40:58.549Z,90.50
2017-10-29T06:43:26.827Z,90.10
2017-10-29T06:45:55.690Z,90.00
2017-10-29T06:48:23.995Z,90.10
2017-10-29T06:50:53.046Z,90.00
2017-10-29T06:53:21.310Z,90.10
2017-10-29T06:55:49.591Z,90.10
2017-10-29T06:58:17.880Z,90.40
2017-10-29T07:00:46.159Z,90.50
2017-10-29T07:03:14.428Z,91.00
2017-10-29T07:05:42.745Z,90.20
2017-10-29T07:08:11.784Z,91.10
2017-10-29T07:10:40.051Z,91.00
2017-10-29T07:13:08.349Z,91.20
2017-10-29T07:15:37.371Z,91.00
2017-10-29T07:18:05.652Z,90.90
2017-10-29T07:20:33.923Z,90.40
2017-10-29T07:23:02.208Z,90.70
2017-10-29T07:25:30.487Z,90.10
2017-10-29T07:27:58.757Z,90.20
2017-10-29T07:30:27.039Z,90.20
2017-10-29T07:32:55.331Z,90.30
2017-10-29T07:35:23.659Z,90.30
2017-10-29T07:37:52.817Z,90.90
2017-10-29T07:40:21.106Z,90.80
2017-10-29T07:42:49.390Z,91.00
2017-10-29T07:45:17.656Z,90.60
2017-10-29T07:47:46.064Z,90.40
2017-10-29T07:50:14.331Z,90.40
2017-10-29T07:52:42.651Z,90.40
2017-10-29T07:55:10.943Z,91.00
2017-10-29T07:57:39.975Z,91.40
2017-10-29T08:00:08.259Z,91.40
2017-10-29T08:02:37.298Z,91.60
2017-10-29T08:05:05.579Z,91.70
2017-10-29T08:07:33.855Z,91.80
2017-10-29T08:10:02.172Z,91.40
2017-10-29T08:12:30.427Z,90.50
2017-10-29T08:14:58.698Z,82.30
2017-10-29T08:17:26.975Z,82.30
2017-10-29T08:19:55.248Z,80.70
2017-10-29T08:22:23.539Z,80.70
2017-10-29T08:24:52.608Z,76.50
2017-10-29T08:27:21.070Z,76.50
2017-10-29T08:29:49.337Z,76.50
2017-10-29T08:32:17.604Z,75.50
2017-10-29T08:34:46.647Z,74.50
2017-10-29T08:37:14.915Z,75.00
2017-10-29T08:39:43.200Z,76.20
2017-10-29T08:42:11.471Z,72.50
2017-10-29T08:44:40.533Z,73.10
2017-10-29T08:47:08.795Z,73.00
2017-10-29T08:49:37.059Z,72.00
2017-10-29T08:52:05.340Z,73.20
2017-10-29T08:54:34.374Z,73.20
2017-10-29T08:57:02.703Z,73.10
2017-10-29T08:59:30.966Z,70.80
2017-10-29T09:01:59.235Z,69.20
2017-10-29T09:04:27.526Z,66.70
2017-10-29T09:06:55.791Z,64.80
2017-10-29T09:09:24.101Z,65.30
2017-10-29T09:11:53.161Z,63.60
2017-10-29T09:14:21.464Z,63.60
2017-10-29T09:16:49.736Z,60.40
2017-10-29T09:19:17.995Z,59.80
2017-10-29T09:21:46.279Z,57.00
2017-10-29T09:24:14.571Z,56.50
2017-10-29T09:26:43.614Z,57.40
2017-10-29T09:29:11.883Z,57.50
2017-10-29T09:31:43.228Z,54.80
2017-10-29T09:34:11.511Z,54.80
2017-10-29T09:36:40.542Z,56.50
2017-10-29T09:39:08.828Z,56.60
2017-10-29T09:41:37.087Z,56.80
2017-10-29T09:44:05.373Z,59.30
2017-10-29T09:46:34.390Z,57.90
2017-10-29T09:49:02.697Z,57.90
2017-10-29T09:51:30.955Z,59.70
2017-10-29T09:53:59.206Z,58.90
2017-10-29T09:56:27.515Z,53.10
2017-10-29T09:58:55.780Z,53.10
2017-10-29T10:01:34.748Z,51.40
2017-10-29T10:04:21.013Z,52.00
2017-10-29T10:06:51.060Z,51.90
2017-10-29T10:09:19.334Z,52.00
2017-10-29T10:11:47.611Z,51.20
2017-10-29T10:14:16.045Z,53.40
2017-10-29T10:16:45.059Z,51.90
2017-10-29T10:19:13.335Z,51.90
2017-10-29T10:21:41.612Z,51.40
2017-10-29T10:24:11.418Z,51.50
2017-10-29T10:26:40.447Z,48.70
2017-10-29T10:29:08.720Z,48.00
2017-10-29T10:31:36.998Z,48.50
2017-10-29T10:34:05.267Z,48.80
2017-10-29T10:36:33.553Z,46.30
2017-10-29T10:39:02.597Z,44.80
2017-10-29T10:41:31.491Z,44.80
2017-10-29T10:43:59.763Z,44.10
2017-10-29T10:46:28.847Z,43.40
2017-10-29T10:48:57.899Z,42.40
2017-10-29T10:51:26.180Z,42.30
2017-10-29T10:53:55.228Z,43.70
2017-10-29T10:56:23.501Z,43.60
2017-10-29T10:58:51.795Z,43.20
2017-10-29T11:01:20.830Z,39.40
2017-10-29T11:03:49.315Z,39.30
2017-10-29T11:06:17.584Z,40.30
2017-10-29T11:08:45.846Z,41.20
2017-10-29T11:11:14.144Z,41.00
2017-10-29T11:13:42.407Z,39.40
2017-10-29T11:16:10.687Z,39.10
2017-10-29T11:18:38.954Z,40.70
2017-10-29T11:21:07.456Z,38.40
2017-10-29T11:23:35.715Z,38.90
2017-10-29T11:26:03.984Z,40.00
2017-10-29T11:28:33.036Z,39.00
2017-10-29T11:31:01.295Z,39.00
2017-10-29T11:33:29.580Z,36.90
2017-10-29T11:35:57.847Z,36.10
2017-10-29T11:38:26.936Z,38.70
2017-10-29T11:40:55.975Z,37.40
2017-10-29T11:43:24.238Z,37.40
2017-10-29T11:45:52.528Z,38.80
2017-10-29T11:48:20.803Z,38.20
2017-10-29T11:50:49.850Z,41.80
2017-10-29T11:53:18.106Z,41.80
2017-10-29T11:55:46.582Z,42.20
2017-10-29T11:58:14.856Z,41.30
2017-10-29T12:00:43.119Z,43.60
2017-10-29T12:03:13.950Z,41.40
2017-10-29T12:05:42.988Z,41.60
2017-10-29T12:08:11.271Z,41.60
2017-10-29T12:10:39.540Z,40.30
2017-10-29T12:13:08.621Z,40.60
2017-10-29T12:15:43.939Z,40.60
2017-10-29T12:18:12.807Z,37.70
2017-10-29T12:20:42.236Z,39.20
2017-10-29T12:23:10.671Z,37.00
2017-10-29T12:25:39.720Z,36.00
2017-10-29T12:28:07.988Z,36.10
2017-10-29T12:30:36.273Z,36.00
2017-10-29T12:33:05.304Z,37.30
2017-10-29T12:35:33.817Z,37.20
2017-10-29T12:38:02.078Z,36.20
2017-10-29T12:40:31.129Z,36.70
2017-10-29T12:42:59.401Z,36.60
2017-10-29T12:45:27.704Z,36.00
2017-10-29T12:47:55.993Z,36.70
2017-10-29T12:50:24.264Z,38.30
2017-10-29T12:52:52.777Z,38.20
2017-10-29T12:55:21.816Z,35.40
2017-10-29T12:57:50.086Z,35.40
2017-10-29T13:00:18.367Z,35.00
2017-10-29T13:02:46.634Z,35.80
2017-10-29T13:05:15.683Z,35.60
2017-10-29T13:07:43.951Z,35.60
2017-10-29T13:10:12.731Z,35.10
2017-10-29T13:12:41.008Z,35.30
2017-10-29T13:15:10.036Z,35.30
2017-10-29T13:17:38.319Z,35.20
2017-10-29T13:20:06.586Z,35.40
2017-10-29T13:22:34.888Z,33.80
2017-10-29T13:25:03.920Z,33.30
2017-10-29T13:27:32.233Z,33.20
2017-10-29T13:30:00.503Z,33.00
2017-10-29T13:32:28.780Z,32.20
2017-10-29T13:34:57.064Z,29.90
2017-10-29T13:37:25.338Z,31.50
2017-10-29T13:39:53.644Z,31.80
2017-10-29T13:42:21.928Z,33.20
2017-10-29T13:44:50.444Z,33.10
2017-10-29T13:47:18.707Z,33.10
2017-10-29T13:49:47.749Z,33.40
2017-10-29T13:52:16.024Z,33.30
2017-10-29T13:54:44.287Z,33.70
2017-10-29T13:57:12.576Z,34.30
2017-10-29T13:59:41.603Z,35.30
2017-10-29T14:02:10.108Z,35.30
2017-10-29T14:04:38.383Z,36.40
2017-10-29T14:07:07.411Z,37.10
2017-10-29T14:09:35.686Z,37.10
2017-10-29T14:12:04.179Z,38.70
2017-10-29T14:14:33.232Z,42.00
2017-10-29T14:17:01.515Z,41.90
2017-10-29T14:19:30.190Z,44.40
2017-10-29T14:21:58.447Z,45.30
2017-10-29T14:24:26.723Z,43.50
2017-10-29T14:26:55.774Z,41.40
2017-10-29T14:29:24.038Z,41.20
2017-10-29T14:31:52.327Z,42.50
2017-10-29T14:34:20.607Z,40.80
2017-10-29T14:36:48.899Z,41.00
2017-10-29T14:39:17.172Z,41.00
2017-10-29T14:41:45.435Z,40.70
2017-10-29T14:44:13.722Z,40.00
2017-10-29T14:46:41.986Z,40.50
2017-10-29T14:49:11.035Z,40.60
2017-10-29T14:51:39.295Z,40.60
2017-10-29T14:54:07.587Z,40.60
2017-10-29T14:56:36.611Z,39.80
2017-10-29T14:59:04.880Z,39.80
2017-10-29T15:01:33.159Z,40.20
2017-10-29T15:04:01.443Z,40.50
2017-10-29T15:06:29.707Z,40.90
2017-10-29T15:08:58.748Z,41.00
2017-10-29T15:11:27.064Z,40.90
2017-10-29T15:13:55.356Z,40.20
2017-10-29T15:16:23.631Z,41.00
2017-10-29T15:18:51.936Z,40.50
2017-10-29T15:21:20.190Z,39.70
2017-10-29T15:23:48.474Z,39.90
2017-10-29T15:26:17.517Z,39.00
2017-10-29T15:28:45.793Z,38.90
2017-10-29T15:31:14.051Z,39.50
2017-10-29T15:33:42.335Z,39.20
2017-10-29T15:36:11.371Z,39.80
2017-10-29T15:38:39.663Z,39.80
2017-10-29T15:41:08.730Z,39.60
2017-10-29T15:43:36.986Z,39.50
2017-10-29T15:46:06.791Z,40.10
2017-10-29T15:48:35.053Z,40.10
2017-10-29T15:51:04.088Z,40.50
2017-10-29T15:53:33.308Z,40.40
2017-10-29T15:56:01.651Z,41.70
2017-10-29T15:58:29.952Z,42.40
2017-10-29T16:00:58.984Z,42.50
2017-10-29T16:03:27.280Z,42.40
2017-10-29T16:05:55.548Z,43.80
2017-10-29T16:08:24.599Z,43.50
2017-10-29T16:10:53.639Z,43.40
2017-10-29T16:13:22.263Z,43.40
2017-10-29T16:15:50.531Z,43.90
2017-10-29T16:18:18.807Z,43.70
2017-10-29T16:20:47.852Z,44.80
2017-10-29T16:23:16.116Z,44.70
2017-10-29T16:25:44.387Z,44.30
2017-10-29T16:28:12.648Z,44.30
2017-10-29T16:30:40.958Z,44.50
2017-10-29T16:33:09.229Z,45.90
2017-10-29T16:35:37.488Z,45.20
2017-10-29T16:38:05.762Z,45.90
2017-10-29T16:40:34.028Z,49.10
2017-10-29T16:43:02.323Z,45.90
2017-10-29T16:45:31.225Z,45.20
2017-10-29T16:48:01.509Z,46.00
2017-10-29T16:50:30.544Z,46.50
2017-10-29T16:52:58.786Z,46.40
2017-10-29T16:55:27.071Z,45.80
2017-10-29T16:57:55.364Z,46.80
2017-10-29T17:00:23.638Z,47.00
2017-10-29T17:02:51.899Z,47.70
2017-10-29T17:05:20.940Z,47.90
2017-10-29T17:07:49.199Z,47.90
2017-10-29T17:10:17.516Z,48.40
2017-10-29T17:12:45.824Z,48.10
2017-10-29T17:15:14.078Z,47.60
2017-10-29T17:17:42.364Z,47.90
2017-10-29T17:20:10.651Z,47.40
2017-10-29T17:22:39.677Z,46.50
2017-10-29T17:25:07.932Z,46.50
2017-10-29T17:27:36.207Z,46.60
2017-10-29T17:30:04.470Z,46.30
2017-10-29T17:32:32.747Z,46.80
2017-10-29T17:35:01.004Z,47.40
2017-10-29T17:37:29.395Z,48.00
2017-10-29T17:39:58.423Z,47.80
2017-10-29T17:42:26.697Z,47.80
2017-10-29T17:44:54.966Z,48.50
2017-10-29T17:47:23.238Z,48.90
2017-10-29T17:49:51.508Z,48.70
2017-10-29T17:52:22.105Z,48.80
2017-10-29T17:54:50.514Z,49.40
2017-10-29T17:57:18.780Z,49.40
2017-10-29T17:59:47.043Z,49.70
2017-10-29T18:02:15.324Z,49.60
2017-10-29T18:04:43.579Z,50.00
2017-10-29T18:07:11.986Z,49.40
2017-10-29T18:09:40.248Z,49.40
2017-10-29T18:12:08.561Z,50.00
2017-10-29T18:14:37.756Z,50.00
2017-10-29T18:17:06.792Z,49.50
2017-10-29T18:19:35.835Z,49.50
2017-10-29T18:22:05.495Z,49.50
2017-10-29T18:24:33.784Z,49.60
2017-10-29T18:27:02.977Z,49.00
2017-10-29T18:29:35.039Z,48.70
2017-10-29T18:32:03.299Z,48.50
2017-10-29T18:34:31.600Z,48.60
2017-10-29T18:36:59.887Z,49.10
2017-10-29T18:39:28.143Z,48.50
2017-10-29T18:41:56.424Z,48.20
2017-10-29T18:44:24.688Z,48.70
2017-10-29T18:46:55.444Z,48.50
2017-10-29T18:49:25.481Z,49.40
2017-10-29T18:51:53.785Z,49.30
2017-10-29T18:54:22.075Z,50.10
2017-10-29T18:56:51.110Z,53.10
2017-10-29T18:59:19.375Z,53.00
2017-10-29T19:01:47.636Z,53.50
2017-10-29T19:04:15.936Z,53.60
2017-10-29T19:06:44.967Z,54.50
2017-10-29T19:09:13.232Z,54.40
2017-10-29T19:11:41.498Z,54.30
2017-10-29T19:14:09.755Z,55.10
2017-10-29T19:16:38.031Z,54.50
2017-10-29T19:19:06.301Z,53.90
2017-10-29T19:21:34.610Z,54.60
2017-10-29T19:24:02.871Z,54.60
2017-10-29T19:26:31.132Z,54.80
2017-10-29T19:28:59.406Z,55.20
2017-10-29T19:31:27.729Z,55.70
2017-10-29T19:33:56.006Z,55.70
2017-10-29T19:36:24.283Z,55.50
2017-10-29T19:38:53.488Z,55.50
2017-10-29T19:41:22.553Z,55.20
2017-10-29T19:43:50.956Z,55.10
2017-10-29T19:46:19.227Z,55.20
2017-10-29T19:48:48.269Z,55.70
2017-10-29T19:51:16.548Z,55.70
2017-10-29T19:53:44.803Z,55.50
2017-10-29T19:56:13.115Z,55.10
2017-10-29T19:58:41.380Z,55.10
2017-10-29T20:01:09.644Z,54.70
2017-10-29T20:03:37.921Z,55.10
2017-10-29T20:06:06.188Z,55.40
2017-10-29T20:08:34.463Z,55.50
2017-10-29T20:11:02.727Z,55.80
2017-10-29T20:13:31.055Z,56.10
2017-10-29T20:15:59.319Z,56.40
2017-10-29T20:18:27.632Z,56.60
2017-10-29T20:20:56.683Z,56.60
2017-10-29T20:23:24.962Z,57.00
2017-10-29T20:25:53.341Z,56.90
2017-10-29T20:28:21.583Z,57.20
2017-10-29T20:30:51.409Z,57.90
2017-10-29T20:33:20.426Z,58.60
2017-10-29T20:35:48.712Z,58.50
2017-10-29T20:38:16.989Z,58.40
2017-10-29T20:40:45.366Z,58.70
2017-10-29T20:43:13.631Z,58.70
2017-10-29T20:45:42.667Z,59.80
2017-10-29T20:48:10.984Z,60.30
2017-10-29T20:50:39.256Z,59.60
2017-10-29T20:53:07.511Z,59.80
2017-10-29T20:55:35.779Z,60.00
2017-10-29T20:58:04.099Z,60.50
2017-10-29T21:00:32.367Z,61.00
2017-10-29T21:03:01.388Z,60.20
2017-10-29T21:05:29.704Z,60.20
2017-10-29T21:07:57.964Z,61.00
2017-10-29T21:10:26.999Z,60.80
2017-10-29T21:12:55.291Z,60.60
2017-10-29T21:15:23.560Z,60.60
2017-10-29T21:17:51.843Z,60.10
2017-10-29T21:20:20.866Z,60.90
2017-10-29T21:22:49.176Z,60.90
2017-10-29T21:25:18.199Z,60.80
2017-10-29T21:27:46.467Z,60.80
2017-10-29T21:30:14.765Z,61.00
2017-10-29T21:32:43.020Z,61.30
2017-10-29T21:35:11.296Z,61.60
2017-10-29T21:37:40.320Z,60.80
2017-10-29T21:40:09.571Z,60.80
2017-10-29T21:42:38.587Z,60.80
2017-10-29T21:45:06.855Z,60.80
2017-10-29T21:47:35.140Z,60.80
2017-10-29T21:50:03.413Z,61.10
2017-10-29T21:52:33.199Z,60.80
2017-10-29T21:55:01.455Z,60.80
2017-10-29T21:57:29.752Z,61.50
2017-10-29T21:59:58.775Z,60.80
2017-10-29T22:02:27.035Z,60.80
2017-10-29T22:04:55.308Z,61.40
2017-10-29T22:07:23.583Z,61.80
2017-10-29T22:09:51.906Z,62.50
2017-10-29T22:12:20.175Z,63.50
2017-10-29T22:14:48.524Z,63.00
2017-10-29T22:17:16.779Z,64.30
2017-10-29T22:19:45.038Z,64.30
2017-10-29T22:22:13.327Z,64.50
2017-10-29T22:24:41.576Z,65.10
2017-10-29T22:27:09.875Z,65.80
2017-10-29T22:29:38.152Z,65.70
2017-10-29T22:32:06.417Z,65.70
2017-10-29T22:34:35.458Z,66.50
2017-10-29T22:37:03.739Z,66.50
2017-10-29T22:39:32.003Z,66.80
2017-10-29T22:42:00.272Z,67.00
2017-10-29T22:44:28.580Z,67.00
2017-10-29T22:46:56.842Z,67.20
2017-10-29T22:49:25.113Z,67.50
2017-10-29T22:51:53.411Z,67.80
2017-10-29T22:54:21.690Z,67.90
2017-10-29T22:56:49.958Z,68.10
2017-10-29T22:59:18.992Z,69.50
2017-10-29T23:01:47.291Z,69.30
2017-10-29T23:04:16.310Z,68.60
2017-10-29T23:06:47.487Z,68.50
2017-10-29T23:09:22.722Z,68.70
2017-10-29T23:11:51.800Z,69.00
2017-10-29T23:14:20.835Z,70.30
2017-10-29T23:16:49.107Z,69.50
2017-10-29T23:19:17.392Z,69.50
2017-10-29T23:21:47.158Z,69.10
2017-10-29T23:24:15.437Z,69.80
2017-10-29T23:26:43.691Z,69.70
2017-10-29T23:29:12.768Z,68.40
2017-10-29T23:31:41.028Z,68.30
2017-10-29T23:34:09.295Z,68.30
2017-10-29T23:36:37.571Z,68.80
2017-10-29T23:39:05.837Z,68.50
2017-10-29T23:41:34.124Z,68.80
2017-10-29T23:44:02.393Z,69.70
2017-10-29T23:46:30.671Z,69.10
2017-10-29T23:48:58.940Z,68.80
2017-10-29T23:51:27.188Z,68.70
2017-10-29T23:53:55.472Z,68.50
2017-10-29T23:56:23.744Z,68.70
2017-10-29T23:58:52.045Z,69.60
